createdAt,value
2022-10-23T00:01:50.932Z,8.77
2022-10-23T00:04:20.035Z,7.60
2022-10-23T00:06:47.921Z,7.30
2022-10-23T00:09:17.485Z,7.90
2022-10-23T00:11:47.609Z,8.37
2022-10-23T00:14:15.387Z,7.57
2022-10-23T00:16:42.637Z,8.98
2022-10-23T00:19:09.938Z,7.50
2022-10-23T00:21:37.363Z,7.88
2022-10-23T00:24:05.220Z,7.23
2022-10-23T00:26:32.552Z,7.90
2022-10-23T00:28:59.809Z,8.07
2022-10-23T00:31:27.186Z,8.32
2022-10-23T00:33:54.482Z,8.15
2022-10-23T00:36:22.403Z,7.53
2022-10-23T00:38:50.448Z,7.43
2022-10-23T00:41:23.140Z,7.60
2022-10-23T00:44:10.811Z,7.68
2022-10-23T00:46:39.219Z,8.07
2022-10-23T00:49:07.143Z,7.90
2022-10-23T00:51:37.477Z,7.53
2022-10-23T00:54:22.851Z,8.13
2022-10-23T00:56:51.778Z,7.75
2022-10-23T00:59:19.093Z,7.68
2022-10-23T01:01:46.498Z,7.57
2022-10-23T01:04:13.804Z,8.07
2022-10-23T01:06:51.266Z,8.00
2022-10-23T01:09:37.577Z,7.60
2022-10-23T01:12:10.938Z,7.35
2022-10-23T01:14:41.221Z,8.77
2022-10-23T01:17:14.802Z,7.25
2022-10-23T01:20:01.636Z,8.65
2022-10-23T01:22:37.814Z,8.43
2022-10-23T01:25:23.626Z,8.23
2022-10-23T01:27:57.116Z,7.90
2022-10-23T01:30:24.478Z,7.40
2022-10-23T01:32:57.127Z,7.53
2022-10-23T01:35:39.959Z,7.63
2022-10-23T01:38:17.393Z,8.00
2022-10-23T01:40:53.969Z,7.60
2022-10-23T01:43:24.860Z,6.95
2022-10-23T01:46:01.062Z,8.00
2022-10-23T01:48:29.961Z,9.02
2022-10-23T01:50:59.441Z,7.38
2022-10-23T01:53:30.690Z,7.70
2022-10-23T01:55:59.803Z,6.63
2022-10-23T01:58:28.944Z,7.75
2022-10-23T02:00:58.366Z,7.75
2022-10-23T02:03:27.498Z,7.22
2022-10-23T02:05:55.125Z,6.70
2022-10-23T02:08:22.446Z,6.90
2022-10-23T02:10:51.972Z,7.22
2022-10-23T02:13:34.704Z,7.65
2022-10-23T02:16:21.556Z,7.68
2022-10-23T02:18:48.848Z,6.53
2022-10-23T02:21:21.932Z,7.65
2022-10-23T02:23:56.214Z,7.53
2022-10-23T02:26:29.948Z,7.00
2022-10-23T02:29:06.544Z,7.45
2022-10-23T02:31:34.001Z,7.07
2022-10-23T02:34:01.443Z,7.78
2022-10-23T02:36:28.764Z,6.68
2022-10-23T02:38:56.098Z,7.18
2022-10-23T02:41:23.291Z,7.88
2022-10-23T02:44:10.780Z,7.80
2022-10-23T02:47:01.655Z,7.75
2022-10-23T02:49:49.157Z,7.10
2022-10-23T02:52:32.733Z,7.03
2022-10-23T02:55:06.764Z,6.85
2022-10-23T02:57:50.505Z,7.13
2022-10-23T03:00:21.398Z,7.45
2022-10-23T03:02:50.081Z,7.40
2022-10-23T03:05:20.310Z,7.70
2022-10-23T03:07:48.575Z,7.15
2022-10-23T03:10:17.080Z,7.23
2022-10-23T03:12:44.795Z,7.38
2022-10-23T03:15:12.664Z,7.35
2022-10-23T03:17:40.797Z,6.90
2022-10-23T03:20:08.465Z,7.90
2022-10-23T03:22:36.312Z,7.00
2022-10-23T03:25:03.822Z,6.47
2022-10-23T03:27:32.538Z,6.85
2022-10-23T03:30:04.434Z,7.38
2022-10-23T03:32:33.235Z,6.30
2022-10-23T03:35:00.582Z,6.60
2022-10-23T03:37:27.909Z,6.28
2022-10-23T03:39:55.190Z,5.95
2022-10-23T03:42:22.761Z,6.63
2022-10-23T03:44:50.201Z,6.72
2022-10-23T03:47:19.212Z,7.63
2022-10-23T03:49:46.501Z,6.28
2022-10-23T03:52:13.907Z,6.55
2022-10-23T03:54:41.218Z,6.65
2022-10-23T03:57:08.613Z,6.78
2022-10-23T03:59:36.124Z,6.97
2022-10-23T04:02:05.983Z,7.07
2022-10-23T04:04:33.372Z,6.25
2022-10-23T04:07:00.630Z,6.88
2022-10-23T04:09:28.719Z,7.40
2022-10-23T04:11:57.152Z,6.40
2022-10-23T04:14:28.101Z,7.30
2022-10-23T04:16:55.347Z,7.05
2022-10-23T04:19:22.627Z,6.95
2022-10-23T04:21:49.925Z,7.45
2022-10-23T04:24:17.184Z,7.30
2022-10-23T04:26:44.438Z,6.95
2022-10-23T04:29:11.802Z,6.85
2022-10-23T04:31:39.028Z,7.65
2022-10-23T04:36:38.478Z,7.07
2022-10-23T04:39:09.828Z,6.40
2022-10-23T04:41:38.967Z,6.85
2022-10-23T04:44:06.507Z,6.55
2022-10-23T04:46:37.511Z,6.47
2022-10-23T04:49:05.344Z,7.00
2022-10-23T04:51:52.932Z,7.10
2022-10-23T04:54:39.304Z,6.50
2022-10-23T04:57:26.803Z,6.95
2022-10-23T05:00:07.380Z,7.15
2022-10-23T05:02:45.430Z,6.37
2022-10-23T05:05:15.018Z,6.72
2022-10-23T05:07:42.590Z,6.45
2022-10-23T05:10:32.987Z,6.85
2022-10-23T05:13:11.062Z,6.97
2022-10-23T05:15:39.940Z,6.30
2022-10-23T05:18:36.814Z,6.85
2022-10-23T05:21:11.002Z,5.85
2022-10-23T05:23:42.645Z,5.10
2022-10-23T05:26:10.012Z,6.38
2022-10-23T05:28:39.042Z,6.13
2022-10-23T05:31:07.783Z,6.28
2022-10-23T05:33:38.335Z,6.35
2022-10-23T05:36:06.234Z,5.20
2022-10-23T05:38:35.728Z,5.85
2022-10-23T05:41:10.476Z,4.90
2022-10-23T05:43:38.110Z,5.30
2022-10-23T05:46:31.487Z,5.28
2022-10-23T05:49:14.798Z,5.90
2022-10-23T05:52:11.999Z,5.15
2022-10-23T05:54:53.215Z,5.57
2022-10-23T05:57:25.862Z,5.40
2022-10-23T05:59:53.869Z,5.63
2022-10-23T06:02:44.154Z,5.22
2022-10-23T06:05:24.755Z,5.15
2022-10-23T06:08:10.673Z,4.87
2022-10-23T06:10:38.675Z,5.90
2022-10-23T06:13:10.989Z,5.90
2022-10-23T06:15:38.385Z,5.20
2022-10-23T06:18:13.807Z,5.72
2022-10-23T06:20:52.853Z,5.10
2022-10-23T06:23:26.157Z,5.45
2022-10-23T06:26:10.474Z,5.40
2022-10-23T06:28:48.745Z,5.22
2022-10-23T06:31:19.146Z,5.47
2022-10-23T06:33:46.913Z,5.00
2022-10-23T06:36:14.275Z,5.60
2022-10-23T06:38:43.329Z,5.45
2022-10-23T06:41:17.219Z,5.30
2022-10-23T06:43:50.697Z,5.45
2022-10-23T06:46:27.064Z,5.93
2022-10-23T06:49:15.254Z,5.65
2022-10-23T06:51:48.360Z,5.53
2022-10-23T06:54:17.163Z,5.72
2022-10-23T06:57:10.632Z,5.30
2022-10-23T06:59:45.328Z,5.67
2022-10-23T07:02:12.708Z,5.93
2022-10-23T07:04:41.233Z,6.03
2022-10-23T07:07:14.722Z,5.40
2022-10-23T07:09:47.950Z,5.53
2022-10-23T07:12:18.013Z,6.07
2022-10-23T07:14:51.242Z,5.95
2022-10-23T07:17:18.767Z,5.80
2022-10-23T07:19:47.052Z,5.78
2022-10-23T07:22:16.153Z,5.13
2022-10-23T07:24:55.647Z,5.60
2022-10-23T07:27:31.321Z,5.85
2022-10-23T07:30:01.846Z,5.50
2022-10-23T07:32:34.044Z,5.78
2022-10-23T07:35:36.990Z,5.07
2022-10-23T07:38:10.330Z,5.60
2022-10-23T07:40:42.193Z,5.47
2022-10-23T07:43:11.081Z,5.15
2022-10-23T07:45:38.474Z,5.40
2022-10-23T07:48:16.958Z,5.80
2022-10-23T07:51:01.477Z,6.00
2022-10-23T07:53:29.404Z,6.28
2022-10-23T07:56:03.244Z,4.93
2022-10-23T07:58:53.737Z,5.43
2022-10-23T08:01:23.428Z,4.90
2022-10-23T08:03:50.752Z,5.80
2022-10-23T08:06:18.386Z,4.90
2022-10-23T08:08:46.263Z,4.93
2022-10-23T08:11:14.282Z,5.32
2022-10-23T08:13:49.727Z,5.35
2022-10-23T08:16:17.326Z,5.30
2022-10-23T08:19:08.522Z,5.05
2022-10-23T08:21:38.982Z,5.47
2022-10-23T08:24:06.509Z,4.68
2022-10-23T08:26:33.734Z,5.07
2022-10-23T08:29:01.423Z,4.60
2022-10-23T08:31:30.004Z,5.28
2022-10-23T08:34:18.877Z,5.40
2022-10-23T08:36:48.111Z,4.18
2022-10-23T08:39:15.466Z,5.35
2022-10-23T08:41:56.545Z,4.80
2022-10-23T08:44:24.418Z,5.32
2022-10-23T08:47:11.300Z,4.47
2022-10-23T08:49:41.094Z,5.00
2022-10-23T08:52:14.202Z,4.57
2022-10-23T08:54:49.548Z,4.50
2022-10-23T08:57:18.140Z,5.60
2022-10-23T08:59:45.515Z,4.80
2022-10-23T09:02:30.786Z,4.43
2022-10-23T09:04:58.936Z,4.75
2022-10-23T09:07:40.647Z,4.47
2022-10-23T09:10:17.302Z,4.32
2022-10-23T09:12:44.723Z,5.18
2022-10-23T09:15:24.317Z,4.80
2022-10-23T09:17:56.720Z,4.20
2022-10-23T09:20:25.522Z,4.63
2022-10-23T09:22:58.241Z,4.40
2022-10-23T09:25:27.024Z,4.50
2022-10-23T09:27:56.752Z,4.70
2022-10-23T09:30:26.886Z,5.07
2022-10-23T09:32:54.231Z,4.83
2022-10-23T09:35:23.007Z,5.22
2022-10-23T09:37:53.224Z,5.18
2022-10-23T09:40:25.416Z,4.22
2022-10-23T09:42:52.630Z,4.65
2022-10-23T09:45:28.348Z,4.50
2022-10-23T09:48:16.072Z,4.63
2022-10-23T09:50:49.426Z,4.63
2022-10-23T09:53:24.237Z,3.92
2022-10-23T09:55:56.298Z,4.30
2022-10-23T09:58:30.867Z,4.47
2022-10-23T10:00:58.247Z,4.20
2022-10-23T10:03:48.982Z,4.25
2022-10-23T10:06:22.128Z,4.05
2022-10-23T10:08:53.928Z,3.88
2022-10-23T10:11:21.361Z,3.77
2022-10-23T10:13:59.300Z,3.55
2022-10-23T10:16:26.977Z,3.92
2022-10-23T10:18:57.235Z,4.00
2022-10-23T10:21:27.555Z,3.90
2022-10-23T10:24:03.114Z,4.00
2022-10-23T10:26:45.059Z,4.13
2022-10-23T10:29:17.993Z,3.60
2022-10-23T10:31:53.089Z,4.10
2022-10-23T10:34:30.005Z,3.92
2022-10-23T10:37:01.476Z,3.37
2022-10-23T10:39:37.962Z,3.97
2022-10-23T10:42:17.432Z,3.38
2022-10-23T10:44:57.044Z,3.55
2022-10-23T10:47:32.127Z,3.95
2022-10-23T10:50:18.846Z,3.10
2022-10-23T10:53:17.470Z,3.05
2022-10-23T10:55:45.641Z,3.03
2022-10-23T10:58:29.146Z,3.20
2022-10-23T11:01:01.663Z,2.90
2022-10-23T11:03:39.857Z,3.87
2022-10-23T11:06:12.930Z,3.65
2022-10-23T11:08:56.174Z,3.20
2022-10-23T11:11:29.418Z,3.30
2022-10-23T11:13:57.591Z,2.80
2022-10-23T11:16:29.951Z,3.03
2022-10-23T11:19:17.625Z,3.05
2022-10-23T11:21:54.098Z,2.78
2022-10-23T11:24:49.500Z,3.17
2022-10-23T11:27:17.994Z,2.72
2022-10-23T11:30:04.187Z,3.30
2022-10-23T11:32:44.025Z,2.92
2022-10-23T11:35:27.675Z,2.95
2022-10-23T11:37:59.769Z,3.33
2022-10-23T11:40:27.209Z,2.92
2022-10-23T11:42:54.606Z,3.37
2022-10-23T11:45:28.266Z,2.92
2022-10-23T11:48:00.662Z,2.65
2022-10-23T11:50:46.431Z,3.05
2022-10-23T11:53:27.702Z,2.50
2022-10-23T11:56:01.095Z,2.60
2022-10-23T11:58:47.341Z,2.75
2022-10-23T12:01:24.459Z,2.95
2022-10-23T12:03:53.929Z,2.88
2022-10-23T12:06:40.613Z,2.88
2022-10-23T12:09:40.432Z,2.63
2022-10-23T12:12:07.686Z,2.60
2022-10-23T12:14:39.339Z,2.88
2022-10-23T12:17:23.257Z,2.72
2022-10-23T12:20:02.657Z,2.42
2022-10-23T12:25:14.379Z,3.03
2022-10-23T12:27:50.820Z,2.85
2022-10-23T12:30:23.367Z,2.67
2022-10-23T12:33:09.312Z,3.15
2022-10-23T12:35:48.917Z,2.83
2022-10-23T12:38:20.002Z,3.00
2022-10-23T12:40:51.922Z,3.03
2022-10-23T12:43:40.043Z,3.20
2022-10-23T12:46:26.402Z,2.95
2022-10-23T12:48:54.736Z,2.70
2022-10-23T12:51:24.286Z,3.13
2022-10-23T12:53:51.588Z,3.03
2022-10-23T12:56:19.268Z,3.83
2022-10-23T12:59:02.687Z,3.13
2022-10-23T13:01:34.620Z,3.07
2022-10-23T13:04:14.017Z,2.97
2022-10-23T13:06:41.395Z,3.38
2022-10-23T13:09:24.187Z,3.10
2022-10-23T13:12:12.583Z,2.70
2022-10-23T13:14:45.890Z,3.47
2022-10-23T13:17:13.107Z,3.13
2022-10-23T13:19:40.414Z,3.45
2022-10-23T13:22:21.219Z,3.28
2022-10-23T13:24:48.682Z,3.60
2022-10-23T13:27:26.459Z,3.80
2022-10-23T13:29:53.843Z,3.13
2022-10-23T13:32:25.473Z,3.38
2022-10-23T13:35:04.151Z,3.47
2022-10-23T13:37:37.813Z,3.20
2022-10-23T13:40:09.843Z,3.27
2022-10-23T13:42:37.083Z,3.40
2022-10-23T13:45:04.419Z,3.10
2022-10-23T13:47:31.673Z,3.67
2022-10-23T13:49:58.951Z,2.95
2022-10-23T13:52:26.237Z,4.03
2022-10-23T13:54:53.530Z,3.33
2022-10-23T13:57:20.793Z,3.17
2022-10-23T13:59:48.093Z,2.92
2022-10-23T14:02:24.982Z,3.90
2022-10-23T14:04:52.436Z,3.67
2022-10-23T14:07:19.733Z,2.78
2022-10-23T14:09:47.460Z,3.80
2022-10-23T14:12:15.710Z,3.00
2022-10-23T14:14:43.024Z,2.95
2022-10-23T14:17:11.081Z,3.17
2022-10-23T14:19:38.472Z,3.70
2022-10-23T14:22:05.823Z,3.25
2022-10-23T14:24:33.213Z,3.75
2022-10-23T14:27:00.517Z,3.63
2022-10-23T14:29:27.743Z,2.93
2022-10-23T14:31:55.018Z,2.88
2022-10-23T14:34:22.272Z,2.80
2022-10-23T14:36:50.943Z,3.20
2022-10-23T14:39:24.123Z,3.53
2022-10-23T14:41:51.368Z,2.83
2022-10-23T14:44:18.662Z,2.75
2022-10-23T14:46:45.920Z,3.30
2022-10-23T14:49:13.241Z,3.05
2022-10-23T14:51:40.439Z,2.45
2022-10-23T14:54:08.171Z,2.77
2022-10-23T14:56:37.574Z,2.35
2022-10-23T14:59:05.308Z,2.30
2022-10-23T15:01:37.538Z,3.15
2022-10-23T15:04:05.155Z,2.35
2022-10-23T15:06:33.297Z,3.10
2022-10-23T15:09:00.567Z,2.75
2022-10-23T15:11:28.017Z,2.70
2022-10-23T15:13:55.769Z,3.00
2022-10-23T15:16:23.870Z,2.70
2022-10-23T15:18:51.217Z,3.07
2022-10-23T15:21:18.760Z,2.83
2022-10-23T15:23:46.547Z,2.30
2022-10-23T15:26:20.353Z,2.47
2022-10-23T15:28:58.429Z,2.80
2022-10-23T15:31:38.139Z,3.07
2022-10-23T15:34:06.213Z,2.50
2022-10-23T15:36:33.838Z,3.17
2022-10-23T15:39:01.185Z,3.38
2022-10-23T15:41:29.909Z,3.25
2022-10-23T15:43:57.249Z,3.03
2022-10-23T15:46:24.523Z,2.85
2022-10-23T15:48:51.762Z,3.00
2022-10-23T15:51:19.042Z,3.50
2022-10-23T15:53:46.393Z,2.83
2022-10-23T15:56:13.679Z,2.53
2022-10-23T15:58:40.911Z,2.30
2022-10-23T16:01:08.260Z,2.75
2022-10-23T16:03:38.830Z,2.97
2022-10-23T16:06:10.555Z,2.65
2022-10-23T16:08:38.376Z,2.63
2022-10-23T16:11:12.856Z,3.10
2022-10-23T16:13:40.146Z,2.95
2022-10-23T16:16:07.642Z,2.97
2022-10-23T16:18:34.941Z,2.72
2022-10-23T16:21:02.223Z,3.43
2022-10-23T16:23:29.759Z,2.97
2022-10-23T16:25:57.000Z,3.05
2022-10-23T16:28:24.311Z,2.97
2022-10-23T16:30:51.637Z,3.30
2022-10-23T16:33:18.866Z,3.63
2022-10-23T16:35:46.138Z,3.03
2022-10-23T16:38:18.550Z,2.97
2022-10-23T16:40:51.785Z,3.45
2022-10-23T16:43:37.686Z,3.13
2022-10-23T16:46:14.047Z,3.57
2022-10-23T16:48:41.753Z,3.05
2022-10-23T16:51:09.926Z,2.90
2022-10-23T16:53:37.454Z,3.20
2022-10-23T16:56:05.538Z,2.58
2022-10-23T16:58:33.253Z,3.00
2022-10-23T17:01:01.882Z,2.78
2022-10-23T17:03:29.792Z,3.15
2022-10-23T17:06:01.632Z,2.95
2022-10-23T17:08:29.866Z,2.88
2022-10-23T17:11:23.540Z,3.13
2022-10-23T17:13:55.717Z,3.08
2022-10-23T17:16:27.570Z,3.05
2022-10-23T17:18:55.230Z,2.25
2022-10-23T17:21:23.241Z,2.78
2022-10-23T17:23:51.252Z,3.17
2022-10-23T17:26:19.608Z,3.08
2022-10-23T17:28:47.714Z,3.38
2022-10-23T17:31:19.678Z,3.30
2022-10-23T17:33:47.570Z,2.85
2022-10-23T17:36:15.480Z,2.90
2022-10-23T17:38:46.553Z,3.70
2022-10-23T17:41:15.115Z,3.72
2022-10-23T17:43:43.481Z,3.63
2022-10-23T17:46:11.559Z,3.63
2022-10-23T17:48:39.580Z,3.70
2022-10-23T17:51:08.308Z,3.35
2022-10-23T17:53:36.635Z,3.85
2022-10-23T17:56:05.085Z,3.58
2022-10-23T17:58:32.731Z,3.15
2022-10-23T18:01:10.302Z,4.10
2022-10-23T18:03:38.769Z,3.55
2022-10-23T18:06:07.623Z,4.05
2022-10-23T18:08:35.859Z,3.70
2022-10-23T18:11:05.048Z,3.45
2022-10-23T18:13:33.555Z,3.40
2022-10-23T18:16:01.597Z,3.30
2022-10-23T18:18:28.970Z,3.70
2022-10-23T18:20:58.336Z,3.78
2022-10-23T18:23:26.146Z,3.33
2022-10-23T18:25:53.515Z,3.60
2022-10-23T18:28:20.845Z,3.97
2022-10-23T18:30:50.184Z,3.70
2022-10-23T18:33:19.207Z,3.53
2022-10-23T18:35:46.780Z,3.72
2022-10-23T18:38:14.586Z,3.40
2022-10-23T18:40:42.623Z,3.33
2022-10-23T18:43:14.847Z,3.42
2022-10-23T18:45:47.215Z,3.60
2022-10-23T18:48:14.518Z,3.97
2022-10-23T18:50:41.760Z,3.30
2022-10-23T18:53:09.059Z,3.65
2022-10-23T18:55:36.245Z,3.35
2022-10-23T18:58:03.541Z,3.47
2022-10-23T19:00:30.800Z,3.08
2022-10-23T19:02:58.083Z,3.47
2022-10-23T19:05:25.486Z,2.88
2022-10-23T19:07:52.979Z,3.20
2022-10-23T19:10:20.798Z,3.50
2022-10-23T19:12:48.174Z,3.72
2022-10-23T19:15:15.458Z,3.57
2022-10-23T19:17:42.740Z,3.70
2022-10-23T19:20:12.074Z,3.50
2022-10-23T19:22:41.073Z,3.40
2022-10-23T19:25:11.256Z,2.50
2022-10-23T19:27:39.322Z,2.90
2022-10-23T19:30:13.462Z,2.78
2022-10-23T19:32:41.802Z,2.63
2022-10-23T19:35:09.755Z,3.13
2022-10-23T19:37:37.164Z,2.40
2022-10-23T19:40:08.080Z,2.17
2022-10-23T19:42:37.235Z,3.53
2022-10-23T19:45:08.630Z,2.50
2022-10-23T19:47:36.350Z,2.83
2022-10-23T19:50:04.343Z,2.40
2022-10-23T19:52:31.655Z,2.20
2022-10-23T19:54:59.063Z,2.30
2022-10-23T19:57:26.316Z,2.30
2022-10-23T19:59:53.919Z,3.00
2022-10-23T20:02:21.363Z,2.03
2022-10-23T20:04:48.682Z,2.23
2022-10-23T20:07:16.192Z,2.40
2022-10-23T20:09:43.473Z,2.30
2022-10-23T20:12:10.860Z,2.35
2022-10-23T20:14:38.123Z,2.00
2022-10-23T20:17:05.408Z,2.13
2022-10-23T20:19:32.748Z,2.25
2022-10-23T20:22:00.726Z,2.50
2022-10-23T20:24:27.977Z,2.30
2022-10-23T20:26:55.775Z,2.58
2022-10-23T20:29:24.831Z,2.63
2022-10-23T20:31:52.241Z,2.45
2022-10-23T20:34:19.624Z,2.58
2022-10-23T20:36:48.444Z,2.05
2022-10-23T20:39:17.451Z,2.42
2022-10-23T20:41:45.166Z,2.27
2022-10-23T20:44:13.575Z,1.95
2022-10-23T20:46:40.913Z,2.17
2022-10-23T20:49:08.140Z,2.13
2022-10-23T20:51:36.208Z,2.00
2022-10-23T20:54:04.126Z,2.00
2022-10-23T20:56:35.650Z,2.20
2022-10-23T20:59:04.527Z,2.17
2022-10-23T21:01:31.904Z,1.50
2022-10-23T21:04:00.158Z,1.48
2022-10-23T21:06:31.502Z,1.53
2022-10-23T21:09:05.463Z,1.40
2022-10-23T21:11:33.308Z,1.60
2022-10-23T21:14:00.862Z,1.77
2022-10-23T21:16:29.317Z,1.52
2022-10-23T21:18:59.977Z,1.43
2022-10-23T21:21:27.691Z,1.38
2022-10-23T21:23:56.804Z,1.15
2022-10-23T21:26:24.685Z,1.10
2022-10-23T21:28:55.996Z,1.58
2022-10-23T21:31:34.083Z,1.20
2022-10-23T21:34:01.623Z,1.50
2022-10-23T21:36:31.016Z,1.20
2022-10-23T21:38:59.281Z,1.33
2022-10-23T21:41:27.840Z,1.55
2022-10-23T21:44:02.251Z,1.20
2022-10-23T21:46:30.437Z,1.30
2022-10-23T21:48:59.319Z,1.02
2022-10-23T21:51:29.279Z,1.20
2022-10-23T21:53:57.238Z,0.90
2022-10-23T21:56:24.443Z,1.10
2022-10-23T21:58:51.899Z,1.02
2022-10-23T22:01:19.265Z,1.67
2022-10-23T22:03:46.610Z,1.30
2022-10-23T22:06:16.657Z,1.05
2022-10-23T22:08:43.927Z,1.90
2022-10-23T22:11:12.689Z,1.00
2022-10-23T22:13:40.673Z,1.92
2022-10-23T22:16:08.051Z,1.27
2022-10-23T22:18:36.067Z,1.77
2022-10-23T22:21:05.064Z,1.20
2022-10-23T22:23:32.297Z,1.60
2022-10-23T22:25:59.717Z,1.40
2022-10-23T22:28:27.014Z,1.67
2022-10-23T22:30:54.292Z,2.05
2022-10-23T22:33:21.567Z,1.50
2022-10-23T22:35:48.828Z,1.70
2022-10-23T22:38:16.086Z,1.67
2022-10-23T22:40:46.618Z,1.42
2022-10-23T22:43:14.117Z,1.40
2022-10-23T22:45:41.387Z,1.77
2022-10-23T22:48:08.744Z,1.10
2022-10-23T22:50:35.969Z,1.60
2022-10-23T22:53:03.216Z,1.80
2022-10-23T22:55:30.483Z,1.52
2022-10-23T22:57:57.746Z,1.90
2022-10-23T23:00:25.010Z,1.75
2022-10-23T23:02:52.260Z,1.52
2022-10-23T23:05:19.636Z,1.95
2022-10-23T23:07:47.169Z,1.52
2022-10-23T23:10:14.469Z,1.63
2022-10-23T23:12:41.679Z,1.80
2022-10-23T23:15:09.290Z,2.05
2022-10-23T23:17:36.504Z,1.88
2022-10-23T23:20:03.798Z,1.83
2022-10-23T23:22:31.079Z,1.90
2022-10-23T23:24:58.290Z,2.20
2022-10-23T23:27:25.519Z,2.08
2022-10-23T23:29:52.722Z,2.20
2022-10-23T23:32:20.047Z,1.90
2022-10-23T23:34:47.220Z,2.27
2022-10-23T23:37:14.472Z,1.65
2022-10-23T23:39:41.770Z,2.10
2022-10-23T23:42:09.081Z,2.47
2022-10-23T23:44:42.027Z,1.88
2022-10-23T23:47:17.731Z,2.37
2022-10-23T23:49:45.044Z,2.47
2022-10-23T23:52:12.326Z,2.60
2022-10-23T23:58:33.812Z,2.28
